sensor_id;sensor_type;location;lat;lon;timestamp;temperature;humidity
46085;DHT22;31823;47.032;8.310;2023-05-10T00:02:02;12.90;99.90
46085;DHT22;31823;47.032;8.310;2023-05-10T00:04:28;12.90;99.90
46085;DHT22;31823;47.032;8.310;2023-05-10T00:06:54;13.00;99.90
46085;DHT22;31823;47.032;8.310;2023-05-10T00:09:20;13.00;99.90
46085;DHT22;31823;47.032;8.310;2023-05-10T00:11:45;12.90;99.90
46085;DHT22;31823;47.032;8.310;2023-05-10T00:14:11;12.80;99.90
46085;DHT22;31823;47.032;8.310;2023-05-10T00:16:37;12.70;99.90
46085;DHT22;31823;47.032;8.310;2023-05-10T00:19:02;12.70;99.90
46085;DHT22;31823;47.032;8.310;2023-05-10T00:21:28;12.70;99.90
46085;DHT22;31823;47.032;8.310;2023-05-10T00:23:54;12.70;99.90
46085;DHT22;31823;47.032;8.310;2023-05-10T00:26:20;12.70;99.90
46085;DHT22;31823;47.032;8.310;2023-05-10T00:28:45;12.70;99.90
46085;DHT22;31823;47.032;8.310;2023-05-10T00:31:11;12.60;99.90
46085;DHT22;31823;47.032;8.310;2023-05-10T00:33:36;12.70;99.90
46085;DHT22;31823;47.032;8.310;2023-05-10T00:36:02;12.70;99.90
46085;DHT22;31823;47.032;8.310;2023-05-10T00:38:28;12.80;99.90
46085;DHT22;31823;47.032;8.310;2023-05-10T00:40:53;12.70;99.90
46085;DHT22;31823;47.032;8.310;2023-05-10T00:43:19;12.70;99.90
46085;DHT22;31823;47.032;8.310;2023-05-10T00:45:45;12.70;99.90
46085;DHT22;31823;47.032;8.310;2023-05-10T00:48:10;12.80;99.90
46085;DHT22;31823;47.032;8.310;2023-05-10T00:50:36;12.70;99.90
46085;DHT22;31823;47.032;8.310;2023-05-10T00:53:02;12.70;99.90
46085;DHT22;31823;47.032;8.310;2023-05-10T00:55:28;12.60;99.90
46085;DHT22;31823;47.032;8.310;2023-05-10T00:57:54;12.60;99.90
46085;DHT22;31823;47.032;8.310;2023-05-10T01:00:20;12.60;99.90
46085;DHT22;31823;47.032;8.310;2023-05-10T01:02:46;12.60;99.90
46085;DHT22;31823;47.032;8.310;2023-05-10T01:05:12;12.50;99.90
46085;DHT22;31823;47.032;8.310;2023-05-10T01:07:38;12.60;99.90
46085;DHT22;31823;47.032;8.310;2023-05-10T01:10:05;12.60;99.90
46085;DHT22;31823;47.032;8.310;2023-05-10T01:12:32;12.50;99.90
46085;DHT22;31823;47.032;8.310;2023-05-10T01:14:57;12.40;99.90
46085;DHT22;31823;47.032;8.310;2023-05-10T01:17:23;12.30;99.90
46085;DHT22;31823;47.032;8.310;2023-05-10T01:19:50;12.30;99.90
46085;DHT22;31823;47.032;8.310;2023-05-10T01:35:47;12.30;99.90
46085;DHT22;31823;47.032;8.310;2023-05-10T01:38:42;12.30;99.90
46085;DHT22;31823;47.032;8.310;2023-05-10T01:41:24;12.30;99.90
46085;DHT22;31823;47.032;8.310;2023-05-10T01:46:38;12.20;99.90
46085;DHT22;31823;47.032;8.310;2023-05-10T01:49:20;12.20;99.90
46085;DHT22;31823;47.032;8.310;2023-05-10T01:51:49;12.10;99.90
46085;DHT22;31823;47.032;8.310;2023-05-10T01:54:19;12.10;99.90
46085;DHT22;31823;47.032;8.310;2023-05-10T01:56:50;12.10;99.90
46085;DHT22;31823;47.032;8.310;2023-05-10T01:59:19;11.90;99.90
46085;DHT22;31823;47.032;8.310;2023-05-10T02:01:46;12.00;99.90
46085;DHT22;31823;47.032;8.310;2023-05-10T02:04:16;12.00;99.90
46085;DHT22;31823;47.032;8.310;2023-05-10T02:06:43;12.10;99.90
46085;DHT22;31823;47.032;8.310;2023-05-10T02:09:10;12.20;99.90
46085;DHT22;31823;47.032;8.310;2023-05-10T02:11:39;12.10;99.90
46085;DHT22;31823;47.032;8.310;2023-05-10T02:14:07;12.10;99.90
46085;DHT22;31823;47.032;8.310;2023-05-10T02:16:35;12.10;99.90
46085;DHT22;31823;47.032;8.310;2023-05-10T02:19:03;12.10;99.90
46085;DHT22;31823;47.032;8.310;2023-05-10T02:21:29;12.00;99.90
46085;DHT22;31823;47.032;8.310;2023-05-10T02:23:57;12.00;99.90
46085;DHT22;31823;47.032;8.310;2023-05-10T02:26:24;12.00;99.90
46085;DHT22;31823;47.032;8.310;2023-05-10T02:28:51;12.00;99.90
46085;DHT22;31823;47.032;8.310;2023-05-10T02:31:18;12.00;99.90
46085;DHT22;31823;47.032;8.310;2023-05-10T02:33:44;12.00;99.90
46085;DHT22;31823;47.032;8.310;2023-05-10T02:36:11;12.10;99.90
46085;DHT22;31823;47.032;8.310;2023-05-10T02:38:38;12.10;99.90
46085;DHT22;31823;47.032;8.310;2023-05-10T02:41:05;12.10;99.90
46085;DHT22;31823;47.032;8.310;2023-05-10T02:43:32;12.20;99.90
46085;DHT22;31823;47.032;8.310;2023-05-10T02:45:58;12.20;99.90
46085;DHT22;31823;47.032;8.310;2023-05-10T02:48:24;12.10;99.90
46085;DHT22;31823;47.032;8.310;2023-05-10T02:50:52;11.90;99.90
46085;DHT22;31823;47.032;8.310;2023-05-10T02:53:23;12.00;99.90
46085;DHT22;31823;47.032;8.310;2023-05-10T02:55:52;12.00;99.90
46085;DHT22;31823;47.032;8.310;2023-05-10T02:58:18;12.00;99.90
46085;DHT22;31823;47.032;8.310;2023-05-10T03:00:46;12.00;99.90
46085;DHT22;31823;47.032;8.310;2023-05-10T03:03:12;12.00;99.90
46085;DHT22;31823;47.032;8.310;2023-05-10T03:05:37;11.90;99.90
46085;DHT22;31823;47.032;8.310;2023-05-10T03:08:03;11.90;99.90
46085;DHT22;31823;47.032;8.310;2023-05-10T03:10:31;11.90;99.90
46085;DHT22;31823;47.032;8.310;2023-05-10T03:13:16;11.90;99.90
46085;DHT22;31823;47.032;8.310;2023-05-10T03:15:58;11.90;99.90
46085;DHT22;31823;47.032;8.310;2023-05-10T03:18:52;11.90;99.90
46085;DHT22;31823;47.032;8.310;2023-05-10T03:21:22;11.90;99.90
46085;DHT22;31823;47.032;8.310;2023-05-10T03:23:57;11.70;99.90
46085;DHT22;31823;47.032;8.310;2023-05-10T03:26:25;11.70;99.90
46085;DHT22;31823;47.032;8.310;2023-05-10T03:28:52;11.80;99.90
46085;DHT22;31823;47.032;8.310;2023-05-10T03:31:18;11.80;99.90
46085;DHT22;31823;47.032;8.310;2023-05-10T03:33:51;11.80;99.90
46085;DHT22;31823;47.032;8.310;2023-05-10T03:36:17;11.80;99.90
46085;DHT22;31823;47.032;8.310;2023-05-10T03:38:43;11.80;99.90
46085;DHT22;31823;47.032;8.310;2023-05-10T03:41:09;11.80;99.90
46085;DHT22;31823;47.032;8.310;2023-05-10T03:43:34;11.80;99.90
46085;DHT22;31823;47.032;8.310;2023-05-10T03:46:04;11.80;99.90
46085;DHT22;31823;47.032;8.310;2023-05-10T03:48:30;11.90;99.90
46085;DHT22;31823;47.032;8.310;2023-05-10T03:50:55;11.80;99.90
46085;DHT22;31823;47.032;8.310;2023-05-10T03:53:21;11.90;99.90
46085;DHT22;31823;47.032;8.310;2023-05-10T03:55:48;11.60;99.90
46085;DHT22;31823;47.032;8.310;2023-05-10T03:58:13;11.70;99.90
46085;DHT22;31823;47.032;8.310;2023-05-10T04:00:39;11.80;99.90
46085;DHT22;31823;47.032;8.310;2023-05-10T04:03:09;11.80;99.90
46085;DHT22;31823;47.032;8.310;2023-05-10T04:05:35;11.80;99.90
46085;DHT22;31823;47.032;8.310;2023-05-10T04:08:01;11.80;99.90
46085;DHT22;31823;47.032;8.310;2023-05-10T04:10:27;11.80;99.90
46085;DHT22;31823;47.032;8.310;2023-05-10T04:12:52;11.90;99.90
46085;DHT22;31823;47.032;8.310;2023-05-10T04:15:18;12.00;99.90
46085;DHT22;31823;47.032;8.310;2023-05-10T04:17:44;12.00;99.90
46085;DHT22;31823;47.032;8.310;2023-05-10T04:20:10;11.90;99.90
46085;DHT22;31823;47.032;8.310;2023-05-10T04:22:36;11.80;99.90
46085;DHT22;31823;47.032;8.310;2023-05-10T04:25:01;11.60;99.90
46085;DHT22;31823;47.032;8.310;2023-05-10T04:27:27;11.40;99.90
46085;DHT22;31823;47.032;8.310;2023-05-10T04:29:52;11.50;99.90
46085;DHT22;31823;47.032;8.310;2023-05-10T04:32:18;11.30;99.90
46085;DHT22;31823;47.032;8.310;2023-05-10T04:34:44;11.40;99.90
46085;DHT22;31823;47.032;8.310;2023-05-10T04:37:09;11.40;99.90
46085;DHT22;31823;47.032;8.310;2023-05-10T04:39:35;11.40;99.90
46085;DHT22;31823;47.032;8.310;2023-05-10T04:42:02;11.40;99.90
46085;DHT22;31823;47.032;8.310;2023-05-10T04:44:28;11.30;99.90
46085;DHT22;31823;47.032;8.310;2023-05-10T04:46:54;11.30;99.90
46085;DHT22;31823;47.032;8.310;2023-05-10T04:49:20;11.30;99.90
46085;DHT22;31823;47.032;8.310;2023-05-10T04:51:46;11.30;99.90
46085;DHT22;31823;47.032;8.310;2023-05-10T04:54:11;11.20;99.90
46085;DHT22;31823;47.032;8.310;2023-05-10T04:56:37;11.10;99.90
46085;DHT22;31823;47.032;8.310;2023-05-10T04:59:03;11.10;99.90
46085;DHT22;31823;47.032;8.310;2023-05-10T05:01:28;11.10;99.90
46085;DHT22;31823;47.032;8.310;2023-05-10T05:03:54;11.10;99.90
46085;DHT22;31823;47.032;8.310;2023-05-10T05:06:20;11.10;99.90
46085;DHT22;31823;47.032;8.310;2023-05-10T05:08:50;11.10;99.90
46085;DHT22;31823;47.032;8.310;2023-05-10T05:11:16;11.10;99.90
46085;DHT22;31823;47.032;8.310;2023-05-10T05:13:42;11.10;99.90
46085;DHT22;31823;47.032;8.310;2023-05-10T05:16:08;11.10;99.90
46085;DHT22;31823;47.032;8.310;2023-05-10T05:18:33;11.10;99.90
46085;DHT22;31823;47.032;8.310;2023-05-10T05:20:59;11.10;99.90
46085;DHT22;31823;47.032;8.310;2023-05-10T05:23:24;11.10;99.90
46085;DHT22;31823;47.032;8.310;2023-05-10T05:25:53;11.10;99.90
46085;DHT22;31823;47.032;8.310;2023-05-10T05:28:20;11.10;99.90
46085;DHT22;31823;47.032;8.310;2023-05-10T05:30:46;11.10;99.90
46085;DHT22;31823;47.032;8.310;2023-05-10T05:33:13;11.10;99.90
46085;DHT22;31823;47.032;8.310;2023-05-10T05:35:38;11.10;99.90
46085;DHT22;31823;47.032;8.310;2023-05-10T05:38:04;11.10;99.90
46085;DHT22;31823;47.032;8.310;2023-05-10T05:40:29;11.10;99.90
46085;DHT22;31823;47.032;8.310;2023-05-10T05:42:55;11.10;99.90
46085;DHT22;31823;47.032;8.310;2023-05-10T05:45:20;11.10;99.90
46085;DHT22;31823;47.032;8.310;2023-05-10T05:47:46;11.20;99.90
46085;DHT22;31823;47.032;8.310;2023-05-10T05:50:12;11.30;99.90
46085;DHT22;31823;47.032;8.310;2023-05-10T05:52:38;11.30;99.90
46085;DHT22;31823;47.032;8.310;2023-05-10T05:55:03;11.30;99.90
46085;DHT22;31823;47.032;8.310;2023-05-10T05:57:29;11.20;99.90
46085;DHT22;31823;47.032;8.310;2023-05-10T05:59:55;11.20;99.90
46085;DHT22;31823;47.032;8.310;2023-05-10T06:02:21;11.30;99.90
46085;DHT22;31823;47.032;8.310;2023-05-10T06:04:47;11.30;99.90
46085;DHT22;31823;47.032;8.310;2023-05-10T06:07:12;11.40;99.90
46085;DHT22;31823;47.032;8.310;2023-05-10T06:09:38;11.40;99.90
46085;DHT22;31823;47.032;8.310;2023-05-10T06:12:03;11.40;99.90
46085;DHT22;31823;47.032;8.310;2023-05-10T06:14:29;11.50;99.90
46085;DHT22;31823;47.032;8.310;2023-05-10T06:16:54;11.50;99.90
46085;DHT22;31823;47.032;8.310;2023-05-10T06:19:20;11.50;99.90
46085;DHT22;31823;47.032;8.310;2023-05-10T06:21:45;11.40;99.90
46085;DHT22;31823;47.032;8.310;2023-05-10T06:24:11;11.50;99.90
46085;DHT22;31823;47.032;8.310;2023-05-10T06:26:37;11.60;99.90
46085;DHT22;31823;47.032;8.310;2023-05-10T06:29:02;11.80;99.90
46085;DHT22;31823;47.032;8.310;2023-05-10T06:31:28;11.90;99.90
46085;DHT22;31823;47.032;8.310;2023-05-10T06:33:53;12.10;99.90
46085;DHT22;31823;47.032;8.310;2023-05-10T06:36:19;12.20;99.90
46085;DHT22;31823;47.032;8.310;2023-05-10T06:38:44;12.20;99.90
46085;DHT22;31823;47.032;8.310;2023-05-10T06:41:10;12.20;99.90
46085;DHT22;31823;47.032;8.310;2023-05-10T06:43:36;12.30;99.90
46085;DHT22;31823;47.032;8.310;2023-05-10T06:46:07;12.20;99.90
46085;DHT22;31823;47.032;8.310;2023-05-10T06:48:33;12.10;99.90
46085;DHT22;31823;47.032;8.310;2023-05-10T06:50:59;12.10;99.90
46085;DHT22;31823;47.032;8.310;2023-05-10T06:53:24;12.10;99.90
46085;DHT22;31823;47.032;8.310;2023-05-10T06:55:50;12.10;99.90
46085;DHT22;31823;47.032;8.310;2023-05-10T06:58:16;12.20;99.90
46085;DHT22;31823;47.032;8.310;2023-05-10T07:00:41;12.10;99.90
46085;DHT22;31823;47.032;8.310;2023-05-10T07:03:09;12.20;99.90
46085;DHT22;31823;47.032;8.310;2023-05-10T07:05:35;12.20;99.90
46085;DHT22;31823;47.032;8.310;2023-05-10T07:08:01;12.30;99.90
46085;DHT22;31823;47.032;8.310;2023-05-10T07:10:26;12.30;99.90
46085;DHT22;31823;47.032;8.310;2023-05-10T07:12:52;12.40;99.90
46085;DHT22;31823;47.032;8.310;2023-05-10T07:15:18;12.50;99.90
46085;DHT22;31823;47.032;8.310;2023-05-10T07:17:43;12.60;99.90
46085;DHT22;31823;47.032;8.310;2023-05-10T07:20:09;12.70;99.90
46085;DHT22;31823;47.032;8.310;2023-05-10T07:22:35;12.70;99.90
46085;DHT22;31823;47.032;8.310;2023-05-10T07:25:00;12.70;99.90
46085;DHT22;31823;47.032;8.310;2023-05-10T07:27:26;12.80;99.90
46085;DHT22;31823;47.032;8.310;2023-05-10T07:29:52;12.70;99.90
46085;DHT22;31823;47.032;8.310;2023-05-10T07:32:17;12.70;99.90
46085;DHT22;31823;47.032;8.310;2023-05-10T07:34:43;12.50;99.90
46085;DHT22;31823;47.032;8.310;2023-05-10T07:37:08;12.40;99.90
46085;DHT22;31823;47.032;8.310;2023-05-10T07:39:34;12.40;99.90
46085;DHT22;31823;47.032;8.310;2023-05-10T07:41:59;12.30;99.90
46085;DHT22;31823;47.032;8.310;2023-05-10T07:44:25;12.30;99.90
46085;DHT22;31823;47.032;8.310;2023-05-10T07:46:51;12.10;99.90
46085;DHT22;31823;47.032;8.310;2023-05-10T07:49:18;12.10;99.90
46085;DHT22;31823;47.032;8.310;2023-05-10T07:51:44;12.20;99.90
46085;DHT22;31823;47.032;8.310;2023-05-10T07:54:10;12.30;99.90
46085;DHT22;31823;47.032;8.310;2023-05-10T07:56:36;12.50;99.90
46085;DHT22;31823;47.032;8.310;2023-05-10T07:59:03;12.60;99.90
46085;DHT22;31823;47.032;8.310;2023-05-10T08:01:33;12.60;99.90
46085;DHT22;31823;47.032;8.310;2023-05-10T08:03:59;12.80;99.90
46085;DHT22;31823;47.032;8.310;2023-05-10T08:06:25;12.70;99.90
46085;DHT22;31823;47.032;8.310;2023-05-10T08:08:53;12.60;99.90
46085;DHT22;31823;47.032;8.310;2023-05-10T08:11:22;12.60;99.90
46085;DHT22;31823;47.032;8.310;2023-05-10T08:13:49;12.50;99.90
46085;DHT22;31823;47.032;8.310;2023-05-10T08:16:16;12.50;99.90
46085;DHT22;31823;47.032;8.310;2023-05-10T08:18:43;12.40;99.90
46085;DHT22;31823;47.032;8.310;2023-05-10T08:21:09;12.50;99.90
46085;DHT22;31823;47.032;8.310;2023-05-10T08:23:36;12.40;99.90
46085;DHT22;31823;47.032;8.310;2023-05-10T08:26:02;12.30;99.90
46085;DHT22;31823;47.032;8.310;2023-05-10T08:28:28;12.40;99.90
46085;DHT22;31823;47.032;8.310;2023-05-10T08:30:53;12.40;99.90
46085;DHT22;31823;47.032;8.310;2023-05-10T08:33:19;12.30;99.90
46085;DHT22;31823;47.032;8.310;2023-05-10T08:35:45;12.50;99.90
46085;DHT22;31823;47.032;8.310;2023-05-10T08:38:10;12.50;99.90
46085;DHT22;31823;47.032;8.310;2023-05-10T08:40:43;12.30;99.90
46085;DHT22;31823;47.032;8.310;2023-05-10T08:43:12;12.20;99.90
46085;DHT22;31823;47.032;8.310;2023-05-10T08:45:42;12.20;99.90
46085;DHT22;31823;47.032;8.310;2023-05-10T08:48:09;12.30;99.90
46085;DHT22;31823;47.032;8.310;2023-05-10T08:50:37;12.20;99.90
46085;DHT22;31823;47.032;8.310;2023-05-10T08:53:06;12.10;99.90
46085;DHT22;31823;47.032;8.310;2023-05-10T08:55:32;12.30;99.90
46085;DHT22;31823;47.032;8.310;2023-05-10T08:57:59;12.30;99.90
46085;DHT22;31823;47.032;8.310;2023-05-10T09:00:26;12.40;99.90
46085;DHT22;31823;47.032;8.310;2023-05-10T09:02:52;12.50;99.90
46085;DHT22;31823;47.032;8.310;2023-05-10T09:05:18;12.60;99.90
46085;DHT22;31823;47.032;8.310;2023-05-10T09:07:44;12.40;99.90
46085;DHT22;31823;47.032;8.310;2023-05-10T09:10:11;12.30;99.90
46085;DHT22;31823;47.032;8.310;2023-05-10T09:12:37;12.50;99.90
46085;DHT22;31823;47.032;8.310;2023-05-10T09:15:03;12.40;99.90
46085;DHT22;31823;47.032;8.310;2023-05-10T09:17:30;12.40;99.90
46085;DHT22;31823;47.032;8.310;2023-05-10T09:20:03;12.40;99.90
46085;DHT22;31823;47.032;8.310;2023-05-10T09:22:30;12.30;99.90
46085;DHT22;31823;47.032;8.310;2023-05-10T09:25:11;12.00;99.90
46085;DHT22;31823;47.032;8.310;2023-05-10T09:27:38;12.00;99.90
46085;DHT22;31823;47.032;8.310;2023-05-10T09:30:05;11.90;99.90
46085;DHT22;31823;47.032;8.310;2023-05-10T09:32:42;12.10;99.90
46085;DHT22;31823;47.032;8.310;2023-05-10T09:35:10;12.00;99.90
46085;DHT22;31823;47.032;8.310;2023-05-10T09:37:35;12.20;99.90
46085;DHT22;31823;47.032;8.310;2023-05-10T09:40:04;12.20;99.90
46085;DHT22;31823;47.032;8.310;2023-05-10T09:42:31;12.40;99.90
46085;DHT22;31823;47.032;8.310;2023-05-10T09:45:03;12.60;99.90
46085;DHT22;31823;47.032;8.310;2023-05-10T09:47:35;12.70;99.90
46085;DHT22;31823;47.032;8.310;2023-05-10T09:50:02;12.50;99.90
46085;DHT22;31823;47.032;8.310;2023-05-10T09:52:58;12.40;99.90
46085;DHT22;31823;47.032;8.310;2023-05-10T09:55:26;12.70;99.90
46085;DHT22;31823;47.032;8.310;2023-05-10T09:58:00;12.80;99.90
46085;DHT22;31823;47.032;8.310;2023-05-10T10:00:26;12.80;99.90
46085;DHT22;31823;47.032;8.310;2023-05-10T10:02:56;12.80;99.90
46085;DHT22;31823;47.032;8.310;2023-05-10T10:05:33;12.90;99.90
46085;DHT22;31823;47.032;8.310;2023-05-10T10:07:59;12.80;99.90
46085;DHT22;31823;47.032;8.310;2023-05-10T10:10:26;12.60;99.90
46085;DHT22;31823;47.032;8.310;2023-05-10T10:12:52;12.50;99.90
46085;DHT22;31823;47.032;8.310;2023-05-10T10:15:18;12.40;99.90
46085;DHT22;31823;47.032;8.310;2023-05-10T10:17:45;12.40;99.90
46085;DHT22;31823;47.032;8.310;2023-05-10T10:20:11;12.40;99.90
46085;DHT22;31823;47.032;8.310;2023-05-10T10:22:37;12.60;99.90
46085;DHT22;31823;47.032;8.310;2023-05-10T10:25:04;12.70;99.90
46085;DHT22;31823;47.032;8.310;2023-05-10T10:27:36;12.70;99.90
46085;DHT22;31823;47.032;8.310;2023-05-10T10:35:24;12.70;99.90
46085;DHT22;31823;47.032;8.310;2023-05-10T10:37:51;12.50;99.90
46085;DHT22;31823;47.032;8.310;2023-05-10T10:40:27;12.50;99.90
46085;DHT22;31823;47.032;8.310;2023-05-10T10:42:53;12.40;99.90
46085;DHT22;31823;47.032;8.310;2023-05-10T10:45:20;12.40;99.90
46085;DHT22;31823;47.032;8.310;2023-05-10T10:47:46;12.50;99.90
46085;DHT22;31823;47.032;8.310;2023-05-10T10:50:12;12.80;99.90
46085;DHT22;31823;47.032;8.310;2023-05-10T10:52:45;12.90;99.90
46085;DHT22;31823;47.032;8.310;2023-05-10T10:55:19;13.00;99.90
46085;DHT22;31823;47.032;8.310;2023-05-10T10:57:52;13.00;99.90
46085;DHT22;31823;47.032;8.310;2023-05-10T11:00:36;13.20;99.90
46085;DHT22;31823;47.032;8.310;2023-05-10T11:05:50;13.50;99.90
46085;DHT22;31823;47.032;8.310;2023-05-10T11:08:25;13.80;99.90
46085;DHT22;31823;47.032;8.310;2023-05-10T11:15:55;14.50;99.90
46085;DHT22;31823;47.032;8.310;2023-05-10T11:18:31;14.70;99.90
46085;DHT22;31823;47.032;8.310;2023-05-10T11:23:23;14.60;99.90
46085;DHT22;31823;47.032;8.310;2023-05-10T11:25:49;14.40;99.90
46085;DHT22;31823;47.032;8.310;2023-05-10T11:28:17;14.20;99.90
46085;DHT22;31823;47.032;8.310;2023-05-10T11:30:44;14.40;99.90
46085;DHT22;31823;47.032;8.310;2023-05-10T11:33:17;14.30;99.90
46085;DHT22;31823;47.032;8.310;2023-05-10T11:35:44;14.00;99.90
46085;DHT22;31823;47.032;8.310;2023-05-10T11:38:12;13.90;99.90
46085;DHT22;31823;47.032;8.310;2023-05-10T11:40:39;14.40;99.90
46085;DHT22;31823;47.032;8.310;2023-05-10T11:43:05;14.50;99.90
46085;DHT22;31823;47.032;8.310;2023-05-10T11:45:35;14.70;99.90
46085;DHT22;31823;47.032;8.310;2023-05-10T11:48:01;14.90;99.90
46085;DHT22;31823;47.032;8.310;2023-05-10T11:50:27;14.80;99.90
46085;DHT22;31823;47.032;8.310;2023-05-10T11:52:54;14.30;99.90
46085;DHT22;31823;47.032;8.310;2023-05-10T11:55:20;13.80;99.90
46085;DHT22;31823;47.032;8.310;2023-05-10T11:57:46;13.70;99.90
46085;DHT22;31823;47.032;8.310;2023-05-10T12:00:13;13.40;99.90
46085;DHT22;31823;47.032;8.310;2023-05-10T12:02:41;13.10;99.90
46085;DHT22;31823;47.032;8.310;2023-05-10T12:05:07;13.30;99.90
46085;DHT22;31823;47.032;8.310;2023-05-10T12:07:33;13.50;99.90
46085;DHT22;31823;47.032;8.310;2023-05-10T12:12:41;13.50;99.90
46085;DHT22;31823;47.032;8.310;2023-05-10T12:15:21;13.50;99.90
46085;DHT22;31823;47.032;8.310;2023-05-10T12:17:47;13.60;99.90
46085;DHT22;31823;47.032;8.310;2023-05-10T12:20:21;13.80;99.90
46085;DHT22;31823;47.032;8.310;2023-05-10T12:22:50;13.90;99.90
46085;DHT22;31823;47.032;8.310;2023-05-10T12:25:21;13.90;99.90
46085;DHT22;31823;47.032;8.310;2023-05-10T12:27:52;14.10;99.90
46085;DHT22;31823;47.032;8.310;2023-05-10T12:30:22;14.40;99.90
46085;DHT22;31823;47.032;8.310;2023-05-10T12:32:48;14.70;99.90
46085;DHT22;31823;47.032;8.310;2023-05-10T12:35:13;15.10;99.90
46085;DHT22;31823;47.032;8.310;2023-05-10T12:37:39;15.10;99.90
46085;DHT22;31823;47.032;8.310;2023-05-10T12:40:06;15.30;99.90
46085;DHT22;31823;47.032;8.310;2023-05-10T12:42:33;15.30;99.90
46085;DHT22;31823;47.032;8.310;2023-05-10T12:45:01;15.50;99.90
46085;DHT22;31823;47.032;8.310;2023-05-10T12:47:27;15.70;99.90
46085;DHT22;31823;47.032;8.310;2023-05-10T12:49:52;15.50;99.90
46085;DHT22;31823;47.032;8.310;2023-05-10T12:52:18;15.40;99.90
46085;DHT22;31823;47.032;8.310;2023-05-10T12:54:43;15.50;99.90
46085;DHT22;31823;47.032;8.310;2023-05-10T12:57:09;15.20;99.90
46085;DHT22;31823;47.032;8.310;2023-05-10T12:59:35;15.50;99.90
46085;DHT22;31823;47.032;8.310;2023-05-10T13:02:01;15.50;99.90
46085;DHT22;31823;47.032;8.310;2023-05-10T13:04:26;15.30;99.90
46085;DHT22;31823;47.032;8.310;2023-05-10T13:06:52;15.50;99.90
46085;DHT22;31823;47.032;8.310;2023-05-10T13:09:17;15.50;99.90
46085;DHT22;31823;47.032;8.310;2023-05-10T13:11:43;15.20;99.90
46085;DHT22;31823;47.032;8.310;2023-05-10T13:14:08;15.40;99.90
46085;DHT22;31823;47.032;8.310;2023-05-10T13:16:34;15.40;99.90
46085;DHT22;31823;47.032;8.310;2023-05-10T13:19:00;15.20;99.90
46085;DHT22;31823;47.032;8.310;2023-05-10T13:21:25;15.40;99.90
46085;DHT22;31823;47.032;8.310;2023-05-10T13:23:51;15.30;99.90
46085;DHT22;31823;47.032;8.310;2023-05-10T13:26:16;15.20;99.90
46085;DHT22;31823;47.032;8.310;2023-05-10T13:28:42;14.90;99.90
46085;DHT22;31823;47.032;8.310;2023-05-10T13:31:08;14.50;99.90
46085;DHT22;31823;47.032;8.310;2023-05-10T13:33:34;14.90;99.90
46085;DHT22;31823;47.032;8.310;2023-05-10T13:35:59;15.30;99.90
46085;DHT22;31823;47.032;8.310;2023-05-10T13:38:25;15.50;99.90
46085;DHT22;31823;47.032;8.310;2023-05-10T13:40:51;15.60;99.90
46085;DHT22;31823;47.032;8.310;2023-05-10T13:43:18;15.70;99.90
46085;DHT22;31823;47.032;8.310;2023-05-10T13:45:44;15.70;99.90
46085;DHT22;31823;47.032;8.310;2023-05-10T13:48:09;15.90;99.90
46085;DHT22;31823;47.032;8.310;2023-05-10T13:50:35;15.60;99.90
46085;DHT22;31823;47.032;8.310;2023-05-10T13:53:00;15.20;99.90
46085;DHT22;31823;47.032;8.310;2023-05-10T13:55:26;15.10;99.90
46085;DHT22;31823;47.032;8.310;2023-05-10T13:57:52;15.10;99.90
46085;DHT22;31823;47.032;8.310;2023-05-10T14:00:17;14.80;99.90
46085;DHT22;31823;47.032;8.310;2023-05-10T14:02:43;14.90;99.90
46085;DHT22;31823;47.032;8.310;2023-05-10T14:05:09;15.00;99.90
46085;DHT22;31823;47.032;8.310;2023-05-10T14:07:34;15.10;99.90
46085;DHT22;31823;47.032;8.310;2023-05-10T14:10:00;15.10;99.90
46085;DHT22;31823;47.032;8.310;2023-05-10T14:12:26;15.20;99.90
46085;DHT22;31823;47.032;8.310;2023-05-10T14:14:51;15.10;99.90
46085;DHT22;31823;47.032;8.310;2023-05-10T14:17:17;15.20;99.90
46085;DHT22;31823;47.032;8.310;2023-05-10T14:19:43;15.30;99.90
46085;DHT22;31823;47.032;8.310;2023-05-10T14:22:09;15.40;99.90
46085;DHT22;31823;47.032;8.310;2023-05-10T14:24:34;15.70;99.90
46085;DHT22;31823;47.032;8.310;2023-05-10T14:27:00;15.60;99.90
46085;DHT22;31823;47.032;8.310;2023-05-10T14:29:25;15.80;99.90
46085;DHT22;31823;47.032;8.310;2023-05-10T14:31:51;16.10;99.90
46085;DHT22;31823;47.032;8.310;2023-05-10T14:34:17;16.40;99.90
46085;DHT22;31823;47.032;8.310;2023-05-10T14:36:42;16.20;99.90
46085;DHT22;31823;47.032;8.310;2023-05-10T14:39:08;16.30;99.90
46085;DHT22;31823;47.032;8.310;2023-05-10T14:41:35;15.50;99.90
46085;DHT22;31823;47.032;8.310;2023-05-10T14:44:01;15.40;99.90
46085;DHT22;31823;47.032;8.310;2023-05-10T14:46:28;15.00;99.90
46085;DHT22;31823;47.032;8.310;2023-05-10T14:48:55;14.70;99.90
46085;DHT22;31823;47.032;8.310;2023-05-10T14:51:20;14.90;99.90
46085;DHT22;31823;47.032;8.310;2023-05-10T14:53:50;14.90;99.90
46085;DHT22;31823;47.032;8.310;2023-05-10T14:56:16;15.00;99.90
46085;DHT22;31823;47.032;8.310;2023-05-10T14:58:41;15.00;99.90
46085;DHT22;31823;47.032;8.310;2023-05-10T15:01:07;14.90;99.90
46085;DHT22;31823;47.032;8.310;2023-05-10T15:03:33;14.60;99.90
46085;DHT22;31823;47.032;8.310;2023-05-10T15:05:58;14.30;99.90
46085;DHT22;31823;47.032;8.310;2023-05-10T15:08:24;13.80;99.90
46085;DHT22;31823;47.032;8.310;2023-05-10T15:10:50;13.70;99.90
46085;DHT22;31823;47.032;8.310;2023-05-10T15:13:16;13.40;99.90
46085;DHT22;31823;47.032;8.310;2023-05-10T15:15:42;13.10;99.90
46085;DHT22;31823;47.032;8.310;2023-05-10T15:18:09;13.10;99.90
46085;DHT22;31823;47.032;8.310;2023-05-10T15:20:34;12.50;99.90
46085;DHT22;31823;47.032;8.310;2023-05-10T15:23:00;12.40;99.90
46085;DHT22;31823;47.032;8.310;2023-05-10T15:25:26;12.00;99.90
46085;DHT22;31823;47.032;8.310;2023-05-10T15:27:53;12.00;99.90
46085;DHT22;31823;47.032;8.310;2023-05-10T15:30:18;12.00;99.90
46085;DHT22;31823;47.032;8.310;2023-05-10T15:32:44;12.50;99.90
46085;DHT22;31823;47.032;8.310;2023-05-10T15:35:10;12.80;99.90
46085;DHT22;31823;47.032;8.310;2023-05-10T15:37:36;13.00;99.90
46085;DHT22;31823;47.032;8.310;2023-05-10T15:40:02;13.00;99.90
46085;DHT22;31823;47.032;8.310;2023-05-10T15:42:32;13.00;99.90
46085;DHT22;31823;47.032;8.310;2023-05-10T15:44:58;13.10;99.90
46085;DHT22;31823;47.032;8.310;2023-05-10T15:47:23;13.00;99.90
46085;DHT22;31823;47.032;8.310;2023-05-10T15:49:49;12.90;99.90
46085;DHT22;31823;47.032;8.310;2023-05-10T15:52:15;12.90;99.90
46085;DHT22;31823;47.032;8.310;2023-05-10T15:54:41;13.00;99.90
46085;DHT22;31823;47.032;8.310;2023-05-10T15:57:07;13.00;99.90
46085;DHT22;31823;47.032;8.310;2023-05-10T15:59:33;13.10;99.90
46085;DHT22;31823;47.032;8.310;2023-05-10T16:02:00;13.00;99.90
46085;DHT22;31823;47.032;8.310;2023-05-10T16:04:28;13.10;99.90